Time;durP1;ratioP1;P1;durP2;ratioP2;P2;SDS_P1;SDS_P2;PMS_P1;PMS_P2;Temp;Humidity;BMP_temperature;BMP_pressure;BME280_temperature;BME280_humidity;BME280_pressure;Samples;Min_cycle;Max_cycle;Signal;HPM_P1;HPM_P2
2022/05/24 00:02:35;;;;;;;5.63;2.15;;;;;;;12.33;81.06;99478.81;6316366;28;20256;-75
2022/05/24 00:05:37;;;;;;;6.28;2.40;;;;;;;12.35;83.74;99475.09;6297951;28;20059;-75
2022/05/24 00:08:37;;;;;;;4.78;2.20;;;;;;;12.23;81.85;99476.91;6316403;28;20040;-75
2022/05/24 00:11:38;;;;;;;2.20;2.00;;;;;;;12.25;83.18;99482.84;6316156;28;20771;-75
2022/05/24 00:18:04;;;;;;;3.88;2.30;;;;;;;12.22;81.56;99475.22;6306234;28;20041;-75
2022/05/24 00:21:06;;;;;;;5.55;1.92;;;;;;;12.23;80.21;99476.91;6299199;28;20071;-75
2022/05/24 00:24:07;;;;;;;2.90;2.20;;;;;;;12.11;81.07;99464.78;6299105;28;20123;-75
2022/05/24 00:27:08;;;;;;;2.08;1.70;;;;;;;12.08;81.40;99470.22;6297926;28;20072;-75
2022/05/24 00:30:09;;;;;;;5.22;2.10;;;;;;;12.05;81.47;99478.31;6299031;28;20040;-75
2022/05/24 00:33:10;;;;;;;2.47;1.95;;;;;;;12.07;82.82;99477.25;6298970;28;20037;-75
2022/05/24 00:36:11;;;;;;;3.33;2.00;;;;;;;12.09;81.00;99474.53;6297694;28;20071;-74
2022/05/24 00:39:11;;;;;;;3.05;2.15;;;;;;;12.07;81.88;99455.50;6297675;28;20047;-74
2022/05/24 00:42:17;;;;;;;2.55;1.95;;;;;;;12.10;81.05;99457.88;6298723;28;20044;-75
2022/05/24 00:45:31;;;;;;;3.03;1.98;;;;;;;12.05;81.48;99457.41;6298579;28;20041;-74
2022/05/24 00:48:39;;;;;;;2.03;1.70;;;;;;;11.97;83.29;99454.53;6298581;28;20079;-74
2022/05/24 00:51:49;;;;;;;2.63;1.90;;;;;;;11.97;82.37;99444.09;6298597;28;20041;-75
2022/05/24 00:54:50;;;;;;;3.53;2.00;;;;;;;11.93;83.04;99440.03;6298607;28;20475;-75
2022/05/24 00:58:09;;;;;;;4.07;2.38;;;;;;;11.91;83.13;99444.56;6298537;28;20045;-75
2022/05/24 01:01:47;;;;;;;4.10;2.10;;;;;;;11.86;83.24;99447.47;6298369;28;20041;-75
2022/05/24 01:04:48;;;;;;;4.03;2.10;;;;;;;11.86;84.43;99450.06;6298152;28;20048;-75
2022/05/24 01:07:49;;;;;;;4.90;1.90;;;;;;;11.82;85.60;99446.88;6279903;28;20155;-75
2022/05/24 01:10:52;;;;;;;1.95;1.75;;;;;;;11.78;84.89;99436.78;6298061;28;20044;-75
2022/05/24 01:13:57;;;;;;;3.85;2.22;;;;;;;11.77;87.31;99435.94;6296632;28;20055;-75
2022/05/24 01:16:59;;;;;;;5.05;1.92;;;;;;;11.75;87.95;99421.31;6297916;28;20499;-75
2022/05/24 01:20:01;;;;;;;3.88;2.00;;;;;;;11.75;87.45;99423.94;6298288;28;20051;-75
2022/05/24 01:23:13;;;;;;;5.30;1.90;;;;;;;11.72;86.06;99425.00;6296651;28;20044;-75
2022/05/24 01:26:25;;;;;;;2.65;2.08;;;;;;;11.65;84.71;99411.56;6296300;28;20044;-75
2022/05/24 01:29:26;;;;;;;3.70;2.35;;;;;;;11.59;84.85;99408.56;6296719;28;20063;-75
2022/05/24 01:39:11;;;;;;;6.28;2.40;;;;;;;11.60;83.67;99397.19;6295971;28;20056;-75
2022/05/24 01:42:13;;;;;;;3.50;2.25;;;;;;;11.62;84.93;99392.69;6297340;28;20071;-75
2022/05/24 01:45:20;;;;;;;5.03;2.20;;;;;;;11.59;84.45;99398.13;6295847;28;20127;-75
2022/05/24 01:48:26;;;;;;;3.47;2.17;;;;;;;11.55;84.58;99391.47;6296014;28;20067;-75
2022/05/24 01:51:33;;;;;;;2.83;2.25;;;;;;;11.55;86.39;99387.09;6295797;28;20403;-75
2022/05/24 01:54:39;;;;;;;5.80;2.55;;;;;;;11.52;84.36;99392.53;6279117;28;20487;-75
2022/05/24 01:57:45;;;;;;;4.45;2.83;;;;;;;11.49;84.12;99382.34;6296882;28;20044;-75
2022/05/24 02:00:53;;;;;;;6.28;2.55;;;;;;;11.52;85.97;99378.66;6295597;28;20086;-75
2022/05/24 02:03:54;;;;;;;4.15;2.30;;;;;;;11.50;84.85;99384.81;6296693;28;20403;-75
2022/05/24 02:07:08;;;;;;;2.90;2.05;;;;;;;11.45;84.51;99391.34;6296331;28;20056;-75
2022/05/24 02:10:09;;;;;;;5.72;2.15;;;;;;;11.42;85.15;99381.94;6296685;28;20045;-75
2022/05/24 02:13:13;;;;;;;2.65;2.25;;;;;;;11.39;86.53;99391.81;6295362;28;20127;-75
2022/05/24 02:16:21;;;;;;;3.38;2.22;;;;;;;11.43;86.03;99391.44;6296492;28;20074;-75
2022/05/24 02:19:24;;;;;;;2.97;2.00;;;;;;;11.40;85.64;99396.06;6296472;28;20403;-75
2022/05/24 02:22:27;;;;;;;4.20;2.30;;;;;;;11.38;86.22;99385.72;6295182;28;20112;-75
2022/05/24 02:25:36;;;;;;;5.38;2.42;;;;;;;11.40;86.28;99386.44;6328742;28;20067;-75
2022/05/24 02:28:37;;;;;;;6.93;2.60;;;;;;;11.38;84.85;99390.94;6296382;28;20553;-76
2022/05/24 02:31:38;;;;;;;4.65;2.13;;;;;;;11.40;83.39;99394.28;6296224;28;20070;-75
2022/05/24 02:34:39;;;;;;;3.03;1.90;;;;;;;11.41;86.79;99395.13;6311863;28;20102;-75
2022/05/24 02:37:40;;;;;;;4.75;1.90;;;;;;;11.41;85.28;99402.97;6278255;28;20049;-75
2022/05/24 02:44:07;;;;;;;6.80;1.90;;;;;;;11.32;89.21;99404.47;6295877;28;20045;-75
2022/05/24 02:47:08;;;;;;;2.95;2.10;;;;;;;11.32;91.53;99390.59;6296063;28;20067;-75
2022/05/24 02:50:11;;;;;;;5.72;2.35;;;;;;;11.28;91.02;99389.97;6278033;28;20049;-74
2022/05/24 02:53:12;;;;;;;3.50;2.13;;;;;;;11.26;90.81;99403.16;6294566;28;20056;-74
2022/05/24 02:56:14;;;;;;;2.45;2.00;;;;;;;11.26;91.87;99412.75;6294631;28;20048;-74
2022/05/24 02:59:14;;;;;;;2.25;1.83;;;;;;;11.22;89.20;99414.78;6295834;28;20064;-74
2022/05/24 03:02:15;;;;;;;3.50;2.05;;;;;;;11.19;92.11;99411.56;6294520;28;20036;-74
2022/05/24 03:05:17;;;;;;;4.35;2.63;;;;;;;11.24;91.19;99425.09;6295435;28;20495;-74
2022/05/24 03:15:02;;;;;;;7.22;2.40;;;;;;;11.24;92.89;99419.88;6313624;28;20049;-75
2022/05/24 03:18:04;;;;;;;3.60;2.00;;;;;;;11.17;94.82;99432.56;6295613;28;20047;-75
2022/05/24 03:21:04;;;;;;;4.18;2.40;;;;;;;11.19;91.52;99425.44;6294315;28;20123;-75
2022/05/24 03:24:05;;;;;;;6.93;3.03;;;;;;;11.20;93.51;99432.34;6294224;28;20080;-75
2022/05/24 03:27:13;;;;;;;5.85;2.25;;;;;;;11.14;90.56;99438.00;6295339;28;20480;-75
2022/05/24 03:30:15;;;;;;;2.60;2.08;;;;;;;11.18;91.70;99441.22;6295385;28;20043;-75
2022/05/24 03:33:17;;;;;;;3.63;2.28;;;;;;;11.18;92.25;99436.84;6294104;28;20052;-75
2022/05/24 03:36:19;;;;;;;4.03;1.97;;;;;;;11.12;92.79;99444.28;6294059;28;20506;-75
2022/05/24 03:39:20;;;;;;;4.40;2.13;;;;;;;11.12;94.71;99452.09;6295365;28;20765;-75
2022/05/24 03:42:22;;;;;;;3.78;2.30;;;;;;;11.13;93.77;99453.78;6295284;28;20344;-74
2022/05/24 03:45:23;;;;;;;2.35;1.98;;;;;;;11.12;94.35;99452.97;6327580;28;20044;-74
2022/05/24 03:48:24;;;;;;;5.03;2.60;;;;;;;11.16;94.82;99456.16;6293887;28;20052;-74
2022/05/24 03:51:24;;;;;;;7.45;2.38;;;;;;;11.09;93.67;99455.78;6277376;28;20045;-74
2022/05/24 03:54:25;;;;;;;6.28;2.78;;;;;;;11.13;91.46;99461.63;6299271;28;20051;-74
2022/05/24 04:00:45;;;;;;;4.38;2.55;;;;;;;11.25;95.56;99463.34;6299672;28;20052;-76
2022/05/24 04:03:46;;;;;;;4.93;2.47;;;;;;;11.24;95.94;99465.13;6299690;28;20083;-75
2022/05/24 04:06:47;;;;;;;3.13;2.25;;;;;;;11.18;95.90;99467.31;6298059;28;20388;-75
2022/05/24 04:09:48;;;;;;;4.28;2.47;;;;;;;11.17;95.07;99473.50;6299856;28;20060;-75
2022/05/24 04:12:48;;;;;;;4.60;2.20;;;;;;;11.22;95.84;99467.00;6298344;28;20076;-75
2022/05/24 04:15:49;;;;;;;6.68;2.63;;;;;;;11.31;94.70;99488.19;6298044;28;20048;-75
2022/05/24 04:18:51;;;;;;;3.35;2.25;;;;;;;11.24;93.68;99474.72;6298189;28;20094;-75
2022/05/24 04:21:52;;;;;;;6.40;2.80;;;;;;;11.34;95.83;99490.56;6299252;28;20388;-74
2022/05/24 04:24:53;;;;;;;3.17;2.33;;;;;;;11.41;93.86;99495.22;6281491;28;20086;-74
2022/05/24 04:27:54;;;;;;;5.68;2.78;;;;;;;11.48;90.96;99499.03;6297875;28;20040;-74
2022/05/24 04:30:55;;;;;;;8.25;2.30;;;;;;;11.58;87.51;99491.34;6297911;28;20041;-75
2022/05/24 04:33:56;;;;;;;6.85;2.70;;;;;;;11.70;88.08;99485.22;6281118;28;20103;-75
2022/05/24 04:36:56;;;;;;;3.92;2.38;;;;;;;11.78;87.29;99483.84;6298881;28;20048;-74
2022/05/24 04:39:57;;;;;;;3.97;2.30;;;;;;;11.89;87.80;99483.88;6297666;28;20147;-74
2022/05/24 04:42:58;;;;;;;5.93;3.25;;;;;;;11.99;86.67;99487.44;6297625;28;20040;-74
2022/05/24 04:45:59;;;;;;;8.25;3.97;;;;;;;12.13;86.21;99483.78;6297322;28;20122;-74
2022/05/24 04:48:59;;;;;;;4.47;2.70;;;;;;;12.30;82.81;99479.88;6280725;28;20139;-74
2022/05/24 04:52:01;;;;;;;12.80;2.70;;;;;;;12.47;82.35;99468.09;6298598;28;20045;-75
2022/05/24 04:55:07;;;;;;;5.68;3.05;;;;;;;12.68;83.81;99455.97;6297107;28;20064;-74
2022/05/24 04:58:10;;;;;;;3.75;1.63;;;;;;;12.80;82.71;99440.22;6298423;28;20124;-76
2022/05/24 05:01:10;;;;;;;8.63;2.10;;;;;;;12.86;80.90;99445.78;6296969;28;20052;-75
2022/05/24 05:04:11;;;;;;;3.75;2.05;;;;;;;13.06;81.44;99453.84;6313842;28;20131;-75
2022/05/24 05:07:12;;;;;;;7.60;2.22;;;;;;;13.27;78.28;99459.13;6296610;28;20396;-75
2022/05/24 05:10:13;;;;;;;6.75;2.28;;;;;;;13.53;78.03;99461.41;6280182;28;20091;-76
2022/05/24 05:13:15;;;;;;;4.53;2.20;;;;;;;13.81;76.54;99475.69;6298124;28;20040;-75
2022/05/24 05:16:16;;;;;;;7.05;2.00;;;;;;;13.96;74.35;99484.03;6297913;28;20045;-76
2022/05/24 05:19:17;;;;;;;4.38;2.00;;;;;;;14.22;74.64;99487.09;6298348;28;20044;-76
2022/05/24 05:22:18;;;;;;;3.10;1.92;;;;;;;14.31;68.94;99484.53;6296651;28;20041;-76
2022/05/24 05:25:19;;;;;;;3.20;1.60;;;;;;;14.51;70.90;99484.59;6297655;28;20041;-76
2022/05/24 05:28:20;;;;;;;6.80;1.73;;;;;;;14.60;71.16;99485.59;6279826;28;20399;-75
2022/05/24 05:31:25;;;;;;;3.40;1.67;;;;;;;14.64;69.71;99493.09;6296420;28;20041;-76
2022/05/24 05:34:25;;;;;;;9.50;1.85;;;;;;;14.75;72.77;99501.84;6313005;28;20485;-75
2022/05/24 05:37:29;;;;;;;5.53;1.80;;;;;;;14.90;70.91;99508.38;6313102;28;20067;-76
2022/05/24 05:40:29;;;;;;;4.25;1.80;;;;;;;15.06;69.52;99507.84;6329770;28;20143;-75
2022/05/24 05:43:30;;;;;;;7.35;2.10;;;;;;;15.18;68.57;99492.81;6295878;28;20051;-75
2022/05/24 05:46:31;;;;;;;3.80;1.80;;;;;;;15.40;69.86;99504.84;6297192;28;20059;-75
2022/05/24 05:49:32;;;;;;;12.05;1.98;;;;;;;15.60;68.65;99513.56;6295713;28;20117;-76
2022/05/24 05:52:33;;;;;;;5.00;1.90;;;;;;;15.83;66.82;99508.88;6279193;28;20049;-76
2022/05/24 05:55:36;;;;;;;5.03;1.60;;;;;;;16.10;68.52;99513.38;6295522;28;20487;-76
2022/05/24 05:58:37;;;;;;;3.92;1.60;;;;;;;16.24;66.03;99512.94;6296910;28;20041;-76
2022/05/24 06:01:38;;;;;;;3.80;1.67;;;;;;;16.31;62.43;99514.03;6278960;28;20495;-75
2022/05/24 06:04:39;;;;;;;2.10;1.55;;;;;;;16.37;61.96;99522.31;6279001;28;20044;-75
2022/05/24 06:07:39;;;;;;;6.22;1.73;;;;;;;16.35;61.50;99522.47;6295060;28;20131;-76
2022/05/24 06:10:41;;;;;;;4.18;1.83;;;;;;;16.20;61.83;99529.97;6296721;28;20454;-76
2022/05/24 06:13:42;;;;;;;4.90;1.80;;;;;;;16.22;64.22;99535.94;6295392;28;20048;-75
2022/05/24 06:16:43;;;;;;;4.13;1.65;;;;;;;16.27;62.25;99546.88;6328452;28;20049;-75
2022/05/24 06:19:45;;;;;;;5.07;1.83;;;;;;;16.32;68.95;99541.19;6295301;28;20079;-76
2022/05/24 06:22:46;;;;;;;4.80;1.90;;;;;;;16.38;64.28;99545.88;6278776;28;20479;-76
2022/05/24 06:25:47;;;;;;;6.72;1.80;;;;;;;16.49;62.32;99543.06;6296284;28;20036;-75
2022/05/24 06:28:48;;;;;;;3.15;1.88;;;;;;;16.58;61.41;99551.09;6328801;28;20052;-74
2022/05/24 06:31:49;;;;;;;8.27;1.85;;;;;;;16.65;61.94;99552.16;6297184;28;20052;-75
2022/05/24 06:34:52;;;;;;;12.25;1.90;;;;;;;16.58;61.07;99551.91;6329257;28;20548;-75
2022/05/24 06:37:54;;;;;;;11.57;2.20;;;;;;;16.66;57.71;99546.75;6295512;28;20068;-75
2022/05/24 06:40:55;;;;;;;4.97;1.80;;;;;;;16.72;60.43;99550.63;6295347;28;20082;-75
2022/05/24 06:43:56;;;;;;;7.03;2.42;;;;;;;16.76;62.03;99541.44;6278558;28;20070;-75
2022/05/24 06:46:57;;;;;;;9.00;1.70;;;;;;;16.74;58.77;99546.03;6296671;28;20055;-76
2022/05/24 06:49:58;;;;;;;17.30;2.25;;;;;;;16.80;59.47;99552.50;6278467;28;20057;-75
2022/05/24 06:52:59;;;;;;;13.25;2.30;;;;;;;16.89;62.90;99555.13;6254128;28;20519;-76
2022/05/24 06:56:00;;;;;;;9.73;1.92;;;;;;;16.94;57.67;99545.94;6270589;28;20044;-76
2022/05/24 07:02:26;;;;;;;4.10;1.63;;;;;;;17.15;57.71;99538.59;6270778;28;20383;-76
2022/05/24 07:05:26;;;;;;;6.82;2.03;;;;;;;17.36;58.40;99542.78;6288130;28;20060;-76
2022/05/24 07:08:28;;;;;;;5.70;1.80;;;;;;;17.40;54.34;99534.44;6270622;28;20057;-76
2022/05/24 07:11:28;;;;;;;4.10;1.60;;;;;;;17.31;54.95;99530.88;6271786;28;20495;-76
2022/05/24 07:14:33;;;;;;;9.68;1.80;;;;;;;17.46;55.15;99528.56;6271463;28;20072;-76
2022/05/24 07:17:34;;;;;;;5.03;1.50;;;;;;;17.55;55.60;99529.47;6260766;28;20465;-75
2022/05/24 07:20:36;;;;;;;12.65;1.85;;;;;;;17.67;54.90;99528.25;6295479;28;20047;-76
2022/05/24 07:23:38;;;;;;;7.55;1.70;;;;;;;17.72;53.51;99525.97;6294217;28;20491;-76
2022/05/24 07:26:38;;;;;;;4.80;1.75;;;;;;;17.72;54.93;99519.88;6295422;28;20052;-76
2022/05/24 07:29:40;;;;;;;8.65;1.67;;;;;;;18.13;56.82;99517.56;6283559;28;20475;-76
2022/05/24 07:32:42;;;;;;;8.50;2.17;;;;;;;18.19;57.92;99521.41;6300628;28;20056;-75
2022/05/24 07:35:43;;;;;;;12.55;2.35;;;;;;;18.38;54.92;99515.06;6301134;28;20060;-76
2022/05/24 07:38:44;;;;;;;9.65;2.25;;;;;;;18.56;52.24;99510.53;6299421;28;20044;-76
2022/05/24 07:48:25;;;;;;;7.25;2.03;;;;;;;19.66;50.48;99513.97;6300058;28;20067;-76
2022/05/24 07:51:26;;;;;;;6.03;1.75;;;;;;;19.76;48.46;99524.41;6300091;28;20052;-77
2022/05/24 07:54:27;;;;;;;7.03;1.90;;;;;;;19.90;49.73;99523.72;6299752;28;20043;-75
2022/05/24 07:57:28;;;;;;;7.10;1.70;;;;;;;19.89;48.36;99537.13;6282551;28;20143;-75
2022/05/24 08:00:31;;;;;;;12.93;1.97;;;;;;;19.84;49.54;99534.16;6299323;28;20082;-76
2022/05/24 08:03:32;;;;;;;3.17;1.67;;;;;;;19.95;46.44;99530.34;6299136;28;20075;-76
2022/05/24 08:06:33;;;;;;;11.13;1.77;;;;;;;19.61;44.42;99533.97;6282185;28;20123;-75
2022/05/24 08:09:35;;;;;;;7.03;1.50;;;;;;;19.67;45.82;99538.59;6299158;28;20086;-76
2022/05/24 08:12:35;;;;;;;9.57;1.70;;;;;;;19.63;46.09;99529.34;6299329;28;20045;-77
2022/05/24 08:15:38;;;;;;;12.53;1.73;;;;;;;19.86;46.54;99535.66;6281964;28;20453;-77
2022/05/24 08:18:39;;;;;;;8.05;2.20;;;;;;;19.85;48.24;99539.31;6299541;28;20102;-76
2022/05/24 08:21:40;;;;;;;8.10;2.50;;;;;;;19.87;47.23;99537.31;6297928;28;20123;-76
2022/05/24 08:24:41;;;;;;;7.35;1.85;;;;;;;20.08;46.87;99533.31;6281500;28;20057;-76
2022/05/24 08:27:43;;;;;;;9.03;2.20;;;;;;;20.37;48.11;99545.19;6297530;28;20048;-77
2022/05/24 08:30:46;;;;;;;7.45;2.10;;;;;;;19.84;47.13;99539.47;6299191;28;20498;-76
2022/05/24 08:33:49;;;;;;;9.40;2.50;;;;;;;20.15;49.03;99539.59;6299366;28;20067;-77
2022/05/24 08:36:49;;;;;;;4.35;2.10;;;;;;;20.13;48.44;99542.41;6297665;28;20045;-76
2022/05/24 08:39:50;;;;;;;7.70;2.40;;;;;;;19.94;48.45;99540.13;6263865;28;20056;-75
2022/05/24 08:43:11;;;;;;;6.10;2.03;;;;;;;20.21;47.80;99546.03;6264400;28;20060;-75
2022/05/24 08:49:37;;;;;;;7.82;2.40;;;;;;;20.78;46.89;99551.22;6298727;28;20043;-76
2022/05/24 08:52:54;;;;;;;10.57;2.83;;;;;;;20.66;46.62;99548.09;6298660;28;20051;-76
2022/05/24 08:55:55;;;;;;;7.88;2.50;;;;;;;20.96;46.75;99548.34;6298556;28;20472;-76
2022/05/24 08:59:03;;;;;;;4.40;2.13;;;;;;;20.78;44.32;99548.56;6298521;28;20040;-76
2022/05/24 09:02:07;;;;;;;11.32;1.80;;;;;;;21.12;44.95;99548.22;6298541;28;20040;-76
2022/05/24 09:05:18;;;;;;;3.47;1.90;;;;;;;21.10;45.02;99533.50;6298140;28;20475;-75
2022/05/24 09:08:47;;;;;;;2.40;1.70;;;;;;;20.97;43.67;99541.19;6297162;28;20045;-76
2022/05/24 09:12:07;;;;;;;6.15;1.70;;;;;;;20.53;43.97;99542.50;6298054;28;20097;-76
2022/05/24 09:15:11;;;;;;;2.75;1.52;;;;;;;20.63;44.71;99547.63;6296714;28;20461;-77
2022/05/24 09:18:12;;;;;;;5.70;1.67;;;;;;;20.88;43.66;99537.75;6280096;28;20056;-76
2022/05/24 09:21:22;;;;;;;3.33;1.40;;;;;;;21.11;40.06;99537.81;6296768;28;20053;-76
2022/05/24 09:24:39;;;;;;;12.07;1.50;;;;;;;21.34;42.59;99546.59;6297826;28;20406;-76
2022/05/24 09:27:51;;;;;;;5.13;1.35;;;;;;;22.07;40.96;99538.28;6297613;28;20506;-76
2022/05/24 09:30:58;;;;;;;5.28;1.50;;;;;;;22.34;39.57;99542.19;6296429;28;20052;-76
2022/05/24 09:34:07;;;;;;;7.57;1.80;;;;;;;22.39;38.48;99539.81;6296374;28;20041;-75
2022/05/24 09:37:25;;;;;;;6.43;1.80;;;;;;;22.65;38.43;99543.84;6296587;28;20045;-76
2022/05/24 09:40:26;;;;;;;5.55;1.60;;;;;;;22.68;39.47;99554.13;6297267;28;20493;-76
2022/05/24 09:43:30;;;;;;;2.40;1.40;;;;;;;22.76;37.65;99546.03;6261567;28;20596;-77
2022/05/24 09:46:35;;;;;;;11.13;1.92;;;;;;;22.79;37.18;99548.31;6295871;28;20051;-75
2022/05/24 09:49:36;;;;;;;2.03;1.27;;;;;;;23.09;37.01;99551.78;6295105;28;20048;-75
2022/05/24 09:52:37;;;;;;;4.38;1.30;;;;;;;23.43;38.29;99549.47;6279180;28;20041;-75
2022/05/24 09:55:59;;;;;;;4.70;1.70;;;;;;;23.81;36.85;99555.41;6295790;28;20064;-75
2022/05/24 09:59:06;;;;;;;7.93;1.45;;;;;;;23.59;35.33;99553.75;6296829;28;20041;-75
2022/05/24 10:02:29;;;;;;;3.78;1.20;;;;;;;23.34;37.53;99554.13;6295860;28;20055;-75
2022/05/24 10:05:30;;;;;;;6.78;1.40;;;;;;;22.96;36.15;99553.44;6295307;28;20053;-75
2022/05/24 10:08:36;;;;;;;;;;;;;;;22.91;37.68;99557.47;6279355;28;20040;-75
2022/05/24 10:11:43;;;;;;;5.00;1.20;;;;;;;23.44;37.09;99553.81;6296499;28;20058;-75
2022/05/24 10:15:08;;;;;;;5.78;1.70;;;;;;;23.38;36.71;99554.56;6295340;28;20097;-75
2022/05/24 10:18:40;;;;;;;4.60;1.42;;;;;;;23.11;35.46;99557.75;6294998;28;20135;-76
2022/05/24 10:22:00;;;;;;;;;;;;;;;22.99;38.00;99553.88;6296871;28;20067;-76
2022/05/24 10:25:14;;;;;;;4.55;1.38;;;;;;;23.22;36.82;99558.28;6296393;28;19924;-76
2022/05/24 10:28:53;;;;;;;5.18;1.27;;;;;;;22.99;38.06;99559.22;6278265;28;20128;-76
2022/05/24 10:31:58;;;;;;;6.03;1.60;;;;;;;22.85;35.79;99563.53;6296199;28;20041;-75
2022/05/24 10:38:44;;;;;;;2.03;1.45;;;;;;;23.34;36.76;99548.78;6296041;28;20479;-75
2022/05/24 10:42:25;;;;;;;7.93;1.50;;;;;;;23.83;36.46;99558.72;6294796;28;20487;-74
2022/05/24 10:45:49;;;;;;;6.15;1.65;;;;;;;23.85;36.43;99559.34;6288979;28;20495;-75
2022/05/24 10:49:07;;;;;;;7.43;1.73;;;;;;;22.89;36.15;99562.16;6294632;28;20060;-75
2022/05/24 10:52:18;;;;;;;4.65;1.60;;;;;;;22.64;36.28;99560.81;6295912;28;20468;-76
2022/05/24 10:55:23;;;;;;;7.68;1.55;;;;;;;23.34;36.99;99562.09;6294541;28;20060;-75
2022/05/24 10:58:26;;;;;;;4.57;1.90;;;;;;;23.39;36.15;99559.72;6295714;28;20522;-75
2022/05/24 11:01:32;;;;;;;4.00;1.63;;;;;;;23.40;37.34;99561.34;6294391;28;20105;-75
2022/05/24 11:04:55;;;;;;;3.90;1.33;;;;;;;23.27;36.22;99558.56;6277683;28;20483;-75
2022/05/24 11:08:25;;;;;;;4.88;1.60;;;;;;;23.28;36.12;99555.69;6295519;28;20039;-75
2022/05/24 11:11:45;;;;;;;4.50;1.40;;;;;;;23.10;35.95;99555.28;6281617;28;20680;-76
2022/05/24 11:14:50;;;;;;;2.92;1.65;;;;;;;23.20;37.45;99557.63;6294520;28;20483;-75
2022/05/24 11:17:51;;;;;;;4.70;1.50;;;;;;;23.19;36.80;99556.00;6277999;28;20049;-75
2022/05/24 11:21:11;;;;;;;6.85;1.60;;;;;;;23.03;36.47;99551.72;6277582;28;20121;-75
2022/05/24 11:24:44;;;;;;;3.70;1.30;;;;;;;23.10;36.92;99542.81;6295548;28;20040;-75
2022/05/24 11:28:16;;;;;;;5.53;1.50;;;;;;;23.18;35.98;99549.84;6271199;28;20048;-74
2022/05/24 11:31:35;;;;;;;8.13;1.70;;;;;;;23.11;36.91;99547.09;6293715;28;20057;-74
2022/05/24 11:34:52;;;;;;;4.82;1.60;;;;;;;23.19;36.33;99543.53;6293836;28;20035;-74
2022/05/24 11:38:22;;;;;;;2.53;1.30;;;;;;;23.30;36.32;99553.66;6294566;28;20047;-76
2022/05/24 11:41:31;;;;;;;4.43;1.50;;;;;;;23.37;37.59;99543.09;6295430;28;20048;-76
2022/05/24 11:44:34;;;;;;;5.30;1.63;;;;;;;23.27;37.05;99539.91;6294233;28;20048;-76
2022/05/24 11:47:35;;;;;;;6.70;1.75;;;;;;;23.48;36.50;99547.91;6295328;28;20037;-76
2022/05/24 11:50:45;;;;;;;9.97;1.40;;;;;;;23.68;35.45;99550.78;6294102;28;20043;-76
2022/05/24 11:53:47;;;;;;;6.10;1.50;;;;;;;23.24;36.19;99538.44;6295297;28;20067;-76
2022/05/24 11:56:52;;;;;;;;;;;;;;;23.48;36.60;99534.59;6278056;28;20060;-76
2022/05/24 11:59:53;;;;;;;5.63;1.33;;;;;;;23.66;36.06;99530.66;6295320;28;19921;-76
2022/05/24 12:10:20;;;;;;;2.65;1.40;;;;;;;23.98;34.93;99528.50;6293782;28;20059;-76
2022/05/24 12:13:30;;;;;;;4.43;1.20;;;;;;;24.08;34.82;99523.66;6294940;28;20045;-76
2022/05/24 12:17:06;;;;;;;7.07;2.00;;;;;;;23.80;37.14;99520.97;6298149;28;20478;-76
2022/05/24 12:20:33;;;;;;;8.57;1.60;;;;;;;23.67;35.51;99527.81;6298280;28;20410;-76
2022/05/24 12:23:40;;;;;;;5.20;1.67;;;;;;;23.67;37.07;99529.66;6291264;28;20052;-76
2022/05/24 12:27:08;;;;;;;3.95;1.60;;;;;;;23.60;38.28;99524.28;6298188;28;20051;-76
2022/05/24 12:30:36;;;;;;;8.25;1.70;;;;;;;23.70;36.98;99516.78;6281336;28;20064;-76
2022/05/24 12:33:43;;;;;;;8.23;1.70;;;;;;;24.02;37.91;99524.44;6297918;28;20139;-76
2022/05/24 12:36:46;;;;;;;9.98;1.75;;;;;;;24.23;35.53;99524.34;6298980;28;20044;-76
2022/05/24 12:40:09;;;;;;;5.63;2.08;;;;;;;24.03;34.70;99521.59;6297694;28;20040;-76
2022/05/24 12:43:17;;;;;;;8.07;2.03;;;;;;;24.53;34.74;99519.66;6299008;28;20515;-76
2022/05/24 12:46:18;;;;;;;10.75;2.20;;;;;;;24.45;35.34;99513.63;6297463;28;20072;-75
2022/05/24 12:49:24;;;;;;;5.40;2.20;;;;;;;24.22;34.33;99506.75;6297657;28;20044;-76
2022/05/24 12:52:30;;;;;;;5.75;2.10;;;;;;;24.18;35.81;99502.81;6297538;28;20045;-77
2022/05/24 12:58:52;;;;;;;6.77;2.80;;;;;;;23.93;36.01;99492.59;6297171;28;20125;-76
2022/05/24 13:01:54;;;;;;;4.78;2.65;;;;;;;23.92;34.89;99490.94;6297474;28;20040;-76
2022/05/24 13:05:18;;;;;;;3.83;2.72;;;;;;;23.71;36.50;99488.31;6280220;28;20049;-77
2022/05/24 13:08:19;;;;;;;16.10;2.70;;;;;;;23.91;36.00;99488.50;6297084;28;20127;-77
2022/05/24 13:11:21;;;;;;;8.25;2.67;;;;;;;24.13;34.81;99481.25;6280298;28;20056;-77
2022/05/24 13:14:53;;;;;;;6.70;2.53;;;;;;;24.00;36.05;99481.97;6297125;28;20095;-76
2022/05/24 13:17:56;;;;;;;;;;;;;;;24.01;37.72;99477.47;6297312;28;20403;-77
2022/05/24 13:20:59;;;;;;;4.82;2.47;;;;;;;24.16;36.87;99475.53;6298091;28;19920;-77
2022/05/24 13:24:09;;;;;;;7.53;3.03;;;;;;;24.20;37.48;99478.63;6280073;28;20060;-75
2022/05/24 13:27:10;;;;;;;13.75;2.53;;;;;;;24.20;37.18;99484.78;6298008;28;20037;-75
2022/05/24 13:33:38;;;;;;;3.78;2.05;;;;;;;24.05;36.25;99476.91;6297700;28;20045;-75
2022/05/24 13:36:43;;;;;;;6.20;2.03;;;;;;;24.03;36.55;99470.94;6279416;28;20087;-75
2022/05/24 13:39:44;;;;;;;5.50;2.20;;;;;;;23.99;34.18;99475.03;6297615;28;20047;-76
2022/05/24 13:42:57;;;;;;;5.88;1.90;;;;;;;23.92;35.33;99476.81;6296163;28;20446;-76
2022/05/24 13:46:13;;;;;;;13.27;1.92;;;;;;;24.17;36.19;99477.16;6296318;28;20123;-76
2022/05/24 13:49:47;;;;;;;11.25;1.80;;;;;;;24.18;34.57;99473.50;6297216;28;20045;-76
2022/05/24 13:52:52;;;;;;;8.45;1.80;;;;;;;23.96;38.00;99482.56;6297198;28;20041;-77
2022/05/24 13:55:55;;;;;;;5.40;1.73;;;;;;;23.86;37.05;99470.41;6296157;28;20044;-77
2022/05/24 13:59:19;;;;;;;6.57;1.67;;;;;;;24.06;36.66;99469.72;6279273;28;20437;-76
2022/05/24 14:02:23;;;;;;;6.63;1.90;;;;;;;23.97;36.49;99476.22;6295808;28;20061;-75
2022/05/24 14:05:32;;;;;;;6.13;2.00;;;;;;;23.97;36.25;99474.41;6279017;28;20060;-75
2022/05/24 14:08:35;;;;;;;5.72;1.85;;;;;;;24.06;36.64;99473.22;6296895;28;20040;-75
2022/05/24 14:11:50;;;;;;;4.60;1.83;;;;;;;24.05;37.98;99462.75;6295311;28;20090;-75
2022/05/24 14:14:51;;;;;;;3.15;2.03;;;;;;;24.01;36.42;99458.81;6295405;28;20072;-76
2022/05/24 14:17:53;;;;;;;3.60;1.90;;;;;;;24.16;36.77;99467.53;6295605;28;20109;-76
2022/05/24 14:20:54;;;;;;;9.32;2.20;;;;;;;24.23;36.49;99456.91;6278716;28;20098;-76
2022/05/24 14:23:56;;;;;;;7.95;2.00;;;;;;;24.41;37.56;99473.19;6262105;28;20048;-76
2022/05/24 14:27:00;;;;;;;3.92;1.88;;;;;;;24.29;37.38;99464.13;6296441;28;20255;-77
2022/05/24 14:30:01;;;;;;;6.75;1.52;;;;;;;24.45;37.36;99466.44;6296479;28;20502;-77
2022/05/24 14:33:02;;;;;;;2.75;1.27;;;;;;;24.19;37.30;99463.66;6278501;28;20106;-76
2022/05/24 14:36:03;;;;;;;5.00;1.95;;;;;;;24.03;36.48;99465.63;6278025;28;20090;-76
2022/05/24 14:39:05;;;;;;;2.65;1.55;;;;;;;23.83;37.17;99462.00;6278793;28;20098;-76
2022/05/24 14:42:06;;;;;;;3.58;1.60;;;;;;;23.72;38.01;99468.63;6296313;28;20106;-75
2022/05/24 14:45:08;;;;;;;6.30;1.58;;;;;;;23.60;39.18;99468.34;6296195;28;20488;-75
2022/05/24 14:48:09;;;;;;;5.97;1.65;;;;;;;23.52;38.01;99466.66;6278324;28;20041;-74
2022/05/24 14:51:12;;;;;;;4.77;1.60;;;;;;;23.53;38.46;99467.47;6295814;28;20067;-75
2022/05/24 14:54:13;;;;;;;5.45;1.77;;;;;;;23.63;38.72;99462.63;6294891;28;20037;-75
2022/05/24 14:57:16;;;;;;;5.40;1.80;;;;;;;23.25;37.55;99465.59;6277990;28;20055;-76
2022/05/24 15:00:19;;;;;;;9.70;1.60;;;;;;;23.40;38.71;99451.38;6278052;28;20060;-75
2022/05/24 15:03:20;;;;;;;6.32;1.73;;;;;;;23.41;38.88;99456.53;6294594;28;20454;-76
2022/05/24 15:06:22;;;;;;;8.53;1.57;;;;;;;23.55;38.68;99446.78;6294321;28;20148;-75
2022/05/24 15:16:02;;;;;;;4.18;1.67;;;;;;;23.60;38.24;99440.91;6280620;28;20041;-76
2022/05/24 15:19:03;;;;;;;7.80;1.90;;;;;;;23.52;37.44;99432.03;6261361;28;20056;-75
2022/05/24 15:22:04;;;;;;;11.40;2.08;;;;;;;23.63;37.83;99438.66;6294471;28;20418;-75
2022/05/24 15:25:08;;;;;;;6.43;2.15;;;;;;;23.72;38.44;99432.19;6277765;28;20414;-75
2022/05/24 15:28:12;;;;;;;7.88;1.63;;;;;;;23.76;39.57;99429.13;6294365;28;20066;-76
2022/05/24 15:31:13;;;;;;;7.57;1.58;;;;;;;23.72;37.31;99424.19;6294235;28;20406;-76
2022/05/24 15:34:14;;;;;;;4.43;1.60;;;;;;;23.77;37.91;99434.28;6295406;28;20033;-75
2022/05/24 15:37:15;;;;;;;3.95;1.50;;;;;;;23.85;37.85;99436.81;6294422;28;20067;-75